Terminal Aerodrome Forecast
Issued by NWS

Current Version | Previous Version | Text Only | Print | Product List | Glossary On
Versions: 1 2 3 4 5 6 7 8 9 10 11 12 13 14 15 16 17
000
FTUS44 KBMX 041700
TAFANB
TAF
KANB 041739Z 0418/0518 22010G18KT 6SM BR OVC015
     FM042300 21008KT 5SM SHRA OVC020
     FM050700 34007KT 4SM -RA OVC007
     FM051500 34014KT 2SM -FZRA BR OVC007=

USA.gov is the U.S. government's official web portal to all federal, state and local government web resources and services.